sensor_id;sensor_type;location;lat;lon;timestamp;P1;durP1;ratioP1;P2;durP2;ratioP2
2680;SDS011;1350;42.134;24.708;2023-12-20T00:00:21;23.92;;;18.05;;
2680;SDS011;1350;42.134;24.708;2023-12-20T00:02:48;28.42;;;18.50;;
2680;SDS011;1350;42.134;24.708;2023-12-20T00:05:15;29.30;;;18.92;;
2680;SDS011;1350;42.134;24.708;2023-12-20T00:07:42;29.27;;;16.05;;
2680;SDS011;1350;42.134;24.708;2023-12-20T00:10:09;25.98;;;17.05;;
2680;SDS011;1350;42.134;24.708;2023-12-20T00:12:38;27.17;;;17.90;;
2680;SDS011;1350;42.134;24.708;2023-12-20T00:15:08;25.73;;;16.08;;
2680;SDS011;1350;42.134;24.708;2023-12-20T00:17:35;25.67;;;16.35;;
2680;SDS011;1350;42.134;24.708;2023-12-20T00:20:02;23.15;;;15.40;;
2680;SDS011;1350;42.134;24.708;2023-12-20T00:22:31;23.65;;;16.05;;
2680;SDS011;1350;42.134;24.708;2023-12-20T00:24:58;20.52;;;15.25;;
2680;SDS011;1350;42.134;24.708;2023-12-20T00:27:25;23.35;;;15.93;;
2680;SDS011;1350;42.134;24.708;2023-12-20T00:29:52;21.70;;;15.93;;
2680;SDS011;1350;42.134;24.708;2023-12-20T00:32:20;32.15;;;16.92;;
2680;SDS011;1350;42.134;24.708;2023-12-20T00:34:47;24.08;;;14.68;;
2680;SDS011;1350;42.134;24.708;2023-12-20T00:37:14;23.15;;;15.55;;
2680;SDS011;1350;42.134;24.708;2023-12-20T00:39:41;24.15;;;14.30;;
2680;SDS011;1350;42.134;24.708;2023-12-20T00:42:09;18.20;;;12.80;;
2680;SDS011;1350;42.134;24.708;2023-12-20T00:44:36;21.27;;;14.40;;
2680;SDS011;1350;42.134;24.708;2023-12-20T00:47:03;20.90;;;14.68;;
2680;SDS011;1350;42.134;24.708;2023-12-20T00:49:31;23.65;;;14.70;;
2680;SDS011;1350;42.134;24.708;2023-12-20T00:51:58;26.42;;;16.20;;
2680;SDS011;1350;42.134;24.708;2023-12-20T00:54:25;22.73;;;17.30;;
2680;SDS011;1350;42.134;24.708;2023-12-20T00:56:52;23.27;;;14.60;;
2680;SDS011;1350;42.134;24.708;2023-12-20T00:59:19;23.38;;;15.02;;
2680;SDS011;1350;42.134;24.708;2023-12-20T01:01:46;21.42;;;15.43;;
2680;SDS011;1350;42.134;24.708;2023-12-20T01:04:13;26.75;;;17.98;;
2680;SDS011;1350;42.134;24.708;2023-12-20T01:06:41;26.92;;;17.23;;
2680;SDS011;1350;42.134;24.708;2023-12-20T01:09:08;28.42;;;18.90;;
2680;SDS011;1350;42.134;24.708;2023-12-20T01:11:35;28.38;;;19.20;;
2680;SDS011;1350;42.134;24.708;2023-12-20T01:14:02;25.38;;;16.65;;
2680;SDS011;1350;42.134;24.708;2023-12-20T01:16:30;26.60;;;16.50;;
2680;SDS011;1350;42.134;24.708;2023-12-20T01:18:57;27.73;;;17.38;;
2680;SDS011;1350;42.134;24.708;2023-12-20T01:21:24;27.27;;;17.17;;
2680;SDS011;1350;42.134;24.708;2023-12-20T01:23:52;27.48;;;17.50;;
2680;SDS011;1350;42.134;24.708;2023-12-20T01:26:19;22.75;;;16.85;;
2680;SDS011;1350;42.134;24.708;2023-12-20T01:28:46;28.83;;;18.15;;
2680;SDS011;1350;42.134;24.708;2023-12-20T01:31:13;30.80;;;17.83;;
2680;SDS011;1350;42.134;24.708;2023-12-20T01:33:40;27.98;;;17.77;;
2680;SDS011;1350;42.134;24.708;2023-12-20T01:36:07;32.70;;;17.77;;
2680;SDS011;1350;42.134;24.708;2023-12-20T01:38:34;30.55;;;16.25;;
2680;SDS011;1350;42.134;24.708;2023-12-20T01:41:02;21.85;;;17.17;;
2680;SDS011;1350;42.134;24.708;2023-12-20T01:43:29;29.15;;;18.83;;
2680;SDS011;1350;42.134;24.708;2023-12-20T01:45:57;32.05;;;18.33;;
2680;SDS011;1350;42.134;24.708;2023-12-20T01:48:24;32.10;;;22.20;;
2680;SDS011;1350;42.134;24.708;2023-12-20T01:50:52;29.55;;;20.05;;
2680;SDS011;1350;42.134;24.708;2023-12-20T01:53:20;31.45;;;21.45;;
2680;SDS011;1350;42.134;24.708;2023-12-20T01:55:50;30.27;;;21.90;;
2680;SDS011;1350;42.134;24.708;2023-12-20T01:58:20;37.47;;;20.95;;
2680;SDS011;1350;42.134;24.708;2023-12-20T02:00:47;27.35;;;19.20;;
2680;SDS011;1350;42.134;24.708;2023-12-20T02:03:15;33.78;;;21.30;;
2680;SDS011;1350;42.134;24.708;2023-12-20T02:05:43;34.63;;;23.67;;
2680;SDS011;1350;42.134;24.708;2023-12-20T02:08:11;33.78;;;18.90;;
2680;SDS011;1350;42.134;24.708;2023-12-20T02:10:38;32.97;;;20.33;;
2680;SDS011;1350;42.134;24.708;2023-12-20T02:13:07;30.02;;;20.35;;
2680;SDS011;1350;42.134;24.708;2023-12-20T02:15:35;33.05;;;18.77;;
2680;SDS011;1350;42.134;24.708;2023-12-20T02:18:03;30.10;;;19.73;;
2680;SDS011;1350;42.134;24.708;2023-12-20T02:20:30;27.95;;;20.10;;
2680;SDS011;1350;42.134;24.708;2023-12-20T02:22:59;26.15;;;17.92;;
2680;SDS011;1350;42.134;24.708;2023-12-20T02:25:26;31.42;;;19.90;;
2680;SDS011;1350;42.134;24.708;2023-12-20T02:27:53;28.55;;;18.40;;
2680;SDS011;1350;42.134;24.708;2023-12-20T02:30:20;24.90;;;17.92;;
2680;SDS011;1350;42.134;24.708;2023-12-20T02:32:47;31.10;;;17.50;;
2680;SDS011;1350;42.134;24.708;2023-12-20T02:35:16;26.55;;;18.77;;
2680;SDS011;1350;42.134;24.708;2023-12-20T02:37:43;25.00;;;17.00;;
2680;SDS011;1350;42.134;24.708;2023-12-20T02:40:11;28.77;;;19.23;;
2680;SDS011;1350;42.134;24.708;2023-12-20T02:42:38;24.95;;;16.58;;
2680;SDS011;1350;42.134;24.708;2023-12-20T02:45:06;28.05;;;18.80;;
2680;SDS011;1350;42.134;24.708;2023-12-20T02:47:33;27.67;;;17.02;;
2680;SDS011;1350;42.134;24.708;2023-12-20T02:50:00;27.33;;;18.38;;
2680;SDS011;1350;42.134;24.708;2023-12-20T02:52:28;33.33;;;21.70;;
2680;SDS011;1350;42.134;24.708;2023-12-20T02:54:55;25.65;;;17.50;;
2680;SDS011;1350;42.134;24.708;2023-12-20T02:57:24;24.38;;;17.17;;
2680;SDS011;1350;42.134;24.708;2023-12-20T02:59:50;32.50;;;20.30;;
2680;SDS011;1350;42.134;24.708;2023-12-20T03:02:17;37.47;;;19.38;;
2680;SDS011;1350;42.134;24.708;2023-12-20T03:04:44;28.48;;;18.63;;
2680;SDS011;1350;42.134;24.708;2023-12-20T03:07:11;35.97;;;21.70;;
2680;SDS011;1350;42.134;24.708;2023-12-20T03:09:38;45.75;;;28.95;;
2680;SDS011;1350;42.134;24.708;2023-12-20T03:12:05;56.40;;;30.20;;
2680;SDS011;1350;42.134;24.708;2023-12-20T03:14:34;39.03;;;22.95;;
2680;SDS011;1350;42.134;24.708;2023-12-20T03:17:01;26.95;;;20.15;;
2680;SDS011;1350;42.134;24.708;2023-12-20T03:19:28;35.40;;;19.92;;
2680;SDS011;1350;42.134;24.708;2023-12-20T03:21:55;25.55;;;16.65;;
2680;SDS011;1350;42.134;24.708;2023-12-20T03:24:22;29.10;;;18.20;;
2680;SDS011;1350;42.134;24.708;2023-12-20T03:26:49;25.23;;;17.10;;
2680;SDS011;1350;42.134;24.708;2023-12-20T03:29:16;31.00;;;17.83;;
2680;SDS011;1350;42.134;24.708;2023-12-20T03:31:44;25.17;;;17.00;;
2680;SDS011;1350;42.134;24.708;2023-12-20T03:34:11;29.23;;;18.42;;
2680;SDS011;1350;42.134;24.708;2023-12-20T03:36:38;29.17;;;18.92;;
2680;SDS011;1350;42.134;24.708;2023-12-20T03:39:06;28.73;;;17.52;;
2680;SDS011;1350;42.134;24.708;2023-12-20T03:41:35;27.42;;;18.77;;
2680;SDS011;1350;42.134;24.708;2023-12-20T03:44:02;26.58;;;17.95;;
2680;SDS011;1350;42.134;24.708;2023-12-20T03:46:29;23.80;;;15.32;;
2680;SDS011;1350;42.134;24.708;2023-12-20T03:48:57;25.48;;;16.73;;
2680;SDS011;1350;42.134;24.708;2023-12-20T03:51:24;25.70;;;16.10;;
2680;SDS011;1350;42.134;24.708;2023-12-20T03:53:51;22.70;;;17.15;;
2680;SDS011;1350;42.134;24.708;2023-12-20T03:56:18;27.98;;;18.35;;
2680;SDS011;1350;42.134;24.708;2023-12-20T03:58:45;27.85;;;18.15;;
2680;SDS011;1350;42.134;24.708;2023-12-20T04:01:12;25.73;;;18.27;;
2680;SDS011;1350;42.134;24.708;2023-12-20T04:03:39;24.13;;;17.02;;
2680;SDS011;1350;42.134;24.708;2023-12-20T04:06:07;28.83;;;17.88;;
2680;SDS011;1350;42.134;24.708;2023-12-20T04:08:34;31.45;;;18.88;;
2680;SDS011;1350;42.134;24.708;2023-12-20T04:11:01;27.52;;;19.77;;
2680;SDS011;1350;42.134;24.708;2023-12-20T04:13:28;27.02;;;17.17;;
2680;SDS011;1350;42.134;24.708;2023-12-20T04:15:55;28.98;;;18.60;;
2680;SDS011;1350;42.134;24.708;2023-12-20T04:18:22;27.20;;;17.88;;
2680;SDS011;1350;42.134;24.708;2023-12-20T04:20:49;32.33;;;23.33;;
2680;SDS011;1350;42.134;24.708;2023-12-20T04:23:18;29.77;;;18.75;;
2680;SDS011;1350;42.134;24.708;2023-12-20T04:25:45;33.78;;;23.77;;
2680;SDS011;1350;42.134;24.708;2023-12-20T04:28:12;27.45;;;18.48;;
2680;SDS011;1350;42.134;24.708;2023-12-20T04:30:39;26.65;;;18.90;;
2680;SDS011;1350;42.134;24.708;2023-12-20T04:33:06;26.48;;;19.60;;
2680;SDS011;1350;42.134;24.708;2023-12-20T04:35:33;33.28;;;21.48;;
2680;SDS011;1350;42.134;24.708;2023-12-20T04:38:00;30.02;;;19.73;;
2680;SDS011;1350;42.134;24.708;2023-12-20T04:40:28;27.52;;;19.27;;
2680;SDS011;1350;42.134;24.708;2023-12-20T04:42:55;33.97;;;23.20;;
2680;SDS011;1350;42.134;24.708;2023-12-20T04:45:22;31.58;;;20.42;;
2680;SDS011;1350;42.134;24.708;2023-12-20T04:47:50;35.38;;;21.50;;
2680;SDS011;1350;42.134;24.708;2023-12-20T04:50:17;32.28;;;22.08;;
2680;SDS011;1350;42.134;24.708;2023-12-20T04:52:45;33.33;;;21.67;;
2680;SDS011;1350;42.134;24.708;2023-12-20T04:55:12;34.05;;;22.10;;
2680;SDS011;1350;42.134;24.708;2023-12-20T04:57:40;36.03;;;22.35;;
2680;SDS011;1350;42.134;24.708;2023-12-20T05:00:08;34.95;;;23.33;;
2680;SDS011;1350;42.134;24.708;2023-12-20T05:02:36;33.88;;;23.20;;
2680;SDS011;1350;42.134;24.708;2023-12-20T05:05:03;35.33;;;21.85;;
2680;SDS011;1350;42.134;24.708;2023-12-20T05:07:30;32.20;;;21.25;;
2680;SDS011;1350;42.134;24.708;2023-12-20T05:09:57;32.33;;;22.42;;
2680;SDS011;1350;42.134;24.708;2023-12-20T05:12:25;34.00;;;22.48;;
2680;SDS011;1350;42.134;24.708;2023-12-20T05:14:53;34.38;;;22.30;;
2680;SDS011;1350;42.134;24.708;2023-12-20T05:17:20;32.58;;;22.75;;
2680;SDS011;1350;42.134;24.708;2023-12-20T05:19:47;35.00;;;22.60;;
2680;SDS011;1350;42.134;24.708;2023-12-20T05:22:14;30.45;;;22.17;;
2680;SDS011;1350;42.134;24.708;2023-12-20T05:28:03;33.20;;;21.55;;
2680;SDS011;1350;42.134;24.708;2023-12-20T05:30:31;34.80;;;22.50;;
2680;SDS011;1350;42.134;24.708;2023-12-20T05:32:59;38.15;;;25.70;;
2680;SDS011;1350;42.134;24.708;2023-12-20T05:35:26;53.10;;;30.77;;
2680;SDS011;1350;42.134;24.708;2023-12-20T05:37:53;38.42;;;24.30;;
2680;SDS011;1350;42.134;24.708;2023-12-20T05:40:20;42.03;;;26.67;;
2680;SDS011;1350;42.134;24.708;2023-12-20T05:42:47;36.63;;;25.92;;
2680;SDS011;1350;42.134;24.708;2023-12-20T05:45:14;38.65;;;24.48;;
2680;SDS011;1350;42.134;24.708;2023-12-20T05:47:43;48.42;;;26.80;;
2680;SDS011;1350;42.134;24.708;2023-12-20T05:50:10;38.28;;;24.60;;
2680;SDS011;1350;42.134;24.708;2023-12-20T05:52:37;27.13;;;22.40;;
2680;SDS011;1350;42.134;24.708;2023-12-20T05:55:04;39.03;;;25.40;;
2680;SDS011;1350;42.134;24.708;2023-12-20T05:57:31;40.95;;;25.33;;
2680;SDS011;1350;42.134;24.708;2023-12-20T05:59:58;31.67;;;22.98;;
2680;SDS011;1350;42.134;24.708;2023-12-20T06:02:25;28.00;;;22.70;;
2680;SDS011;1350;42.134;24.708;2023-12-20T06:04:54;32.30;;;23.30;;
2680;SDS011;1350;42.134;24.708;2023-12-20T06:07:21;31.05;;;24.58;;
2680;SDS011;1350;42.134;24.708;2023-12-20T06:09:47;34.58;;;27.15;;
2680;SDS011;1350;42.134;24.708;2023-12-20T06:12:14;35.28;;;24.27;;
2680;SDS011;1350;42.134;24.708;2023-12-20T06:14:41;31.42;;;23.77;;
2680;SDS011;1350;42.134;24.708;2023-12-20T06:17:08;30.98;;;22.35;;
2680;SDS011;1350;42.134;24.708;2023-12-20T06:19:35;25.88;;;20.95;;
2680;SDS011;1350;42.134;24.708;2023-12-20T06:22:04;33.50;;;21.80;;
2680;SDS011;1350;42.134;24.708;2023-12-20T06:24:31;31.88;;;22.60;;
2680;SDS011;1350;42.134;24.708;2023-12-20T06:26:59;28.10;;;19.85;;
2680;SDS011;1350;42.134;24.708;2023-12-20T06:29:26;29.42;;;21.70;;
2680;SDS011;1350;42.134;24.708;2023-12-20T06:31:53;27.83;;;21.00;;
2680;SDS011;1350;42.134;24.708;2023-12-20T06:34:20;29.90;;;22.00;;
2680;SDS011;1350;42.134;24.708;2023-12-20T06:36:47;31.25;;;21.85;;
2680;SDS011;1350;42.134;24.708;2023-12-20T06:39:15;23.30;;;20.10;;
2680;SDS011;1350;42.134;24.708;2023-12-20T06:41:42;26.30;;;21.55;;
2680;SDS011;1350;42.134;24.708;2023-12-20T06:44:09;29.75;;;21.15;;
2680;SDS011;1350;42.134;24.708;2023-12-20T06:46:36;26.52;;;22.35;;
2680;SDS011;1350;42.134;24.708;2023-12-20T06:49:03;29.00;;;21.42;;
2680;SDS011;1350;42.134;24.708;2023-12-20T06:51:30;26.20;;;20.80;;
2680;SDS011;1350;42.134;24.708;2023-12-20T06:53:58;30.02;;;24.35;;
2680;SDS011;1350;42.134;24.708;2023-12-20T06:56:26;35.33;;;29.00;;
2680;SDS011;1350;42.134;24.708;2023-12-20T06:58:53;35.60;;;27.55;;
2680;SDS011;1350;42.134;24.708;2023-12-20T07:01:20;37.13;;;27.17;;
2680;SDS011;1350;42.134;24.708;2023-12-20T07:03:47;40.22;;;30.67;;
2680;SDS011;1350;42.134;24.708;2023-12-20T07:06:14;32.65;;;27.10;;
2680;SDS011;1350;42.134;24.708;2023-12-20T07:08:42;35.42;;;27.10;;
2680;SDS011;1350;42.134;24.708;2023-12-20T07:11:09;30.15;;;21.60;;
2680;SDS011;1350;42.134;24.708;2023-12-20T07:13:37;24.38;;;20.00;;
2680;SDS011;1350;42.134;24.708;2023-12-20T07:16:04;22.45;;;19.40;;
2680;SDS011;1350;42.134;24.708;2023-12-20T07:18:31;21.55;;;18.08;;
2680;SDS011;1350;42.134;24.708;2023-12-20T07:20:58;23.63;;;18.10;;
2680;SDS011;1350;42.134;24.708;2023-12-20T07:23:25;24.83;;;18.38;;
2680;SDS011;1350;42.134;24.708;2023-12-20T07:25:52;25.83;;;20.35;;
2680;SDS011;1350;42.134;24.708;2023-12-20T07:28:19;26.33;;;20.25;;
2680;SDS011;1350;42.134;24.708;2023-12-20T07:30:47;26.88;;;20.95;;
2680;SDS011;1350;42.134;24.708;2023-12-20T07:33:16;21.95;;;18.98;;
2680;SDS011;1350;42.134;24.708;2023-12-20T07:35:43;21.33;;;19.00;;
2680;SDS011;1350;42.134;24.708;2023-12-20T07:38:10;22.63;;;19.50;;
2680;SDS011;1350;42.134;24.708;2023-12-20T07:40:37;27.73;;;20.30;;
2680;SDS011;1350;42.134;24.708;2023-12-20T07:43:05;23.90;;;19.47;;
2680;SDS011;1350;42.134;24.708;2023-12-20T07:45:32;23.73;;;18.97;;
2680;SDS011;1350;42.134;24.708;2023-12-20T07:48:00;22.80;;;18.50;;
2680;SDS011;1350;42.134;24.708;2023-12-20T07:50:27;25.63;;;20.57;;
2680;SDS011;1350;42.134;24.708;2023-12-20T07:52:54;22.73;;;19.70;;
2680;SDS011;1350;42.134;24.708;2023-12-20T07:55:21;23.50;;;21.00;;
2680;SDS011;1350;42.134;24.708;2023-12-20T07:57:50;23.97;;;19.00;;
2680;SDS011;1350;42.134;24.708;2023-12-20T08:00:17;24.90;;;19.67;;
2680;SDS011;1350;42.134;24.708;2023-12-20T08:02:45;24.93;;;19.67;;
2680;SDS011;1350;42.134;24.708;2023-12-20T08:05:13;21.63;;;18.60;;
2680;SDS011;1350;42.134;24.708;2023-12-20T08:07:40;21.73;;;19.43;;
2680;SDS011;1350;42.134;24.708;2023-12-20T08:10:07;23.23;;;20.60;;
2680;SDS011;1350;42.134;24.708;2023-12-20T08:12:35;24.00;;;21.27;;
2680;SDS011;1350;42.134;24.708;2023-12-20T08:15:02;26.10;;;19.93;;
2680;SDS011;1350;42.134;24.708;2023-12-20T08:17:29;30.17;;;21.47;;
2680;SDS011;1350;42.134;24.708;2023-12-20T08:19:56;25.23;;;22.60;;
2680;SDS011;1350;42.134;24.708;2023-12-20T08:22:24;24.23;;;21.00;;
2680;SDS011;1350;42.134;24.708;2023-12-20T08:24:51;28.40;;;22.93;;
2680;SDS011;1350;42.134;24.708;2023-12-20T08:27:18;25.47;;;21.80;;
2680;SDS011;1350;42.134;24.708;2023-12-20T08:29:45;27.33;;;21.47;;
2680;SDS011;1350;42.134;24.708;2023-12-20T08:32:14;24.47;;;20.10;;
2680;SDS011;1350;42.134;24.708;2023-12-20T08:34:41;22.40;;;19.20;;
2680;SDS011;1350;42.134;24.708;2023-12-20T08:37:08;22.30;;;20.00;;
2680;SDS011;1350;42.134;24.708;2023-12-20T08:39:37;22.50;;;19.40;;
2680;SDS011;1350;42.134;24.708;2023-12-20T08:42:04;23.90;;;19.87;;
2680;SDS011;1350;42.134;24.708;2023-12-20T08:44:31;20.30;;;17.83;;
2680;SDS011;1350;42.134;24.708;2023-12-20T08:46:58;19.77;;;16.03;;
2680;SDS011;1350;42.134;24.708;2023-12-20T08:49:25;21.00;;;17.95;;
2680;SDS011;1350;42.134;24.708;2023-12-20T08:51:53;21.97;;;17.90;;
2680;SDS011;1350;42.134;24.708;2023-12-20T08:54:20;27.93;;;18.33;;
2680;SDS011;1350;42.134;24.708;2023-12-20T08:56:48;26.30;;;18.17;;
2680;SDS011;1350;42.134;24.708;2023-12-20T08:59:15;34.20;;;18.90;;
2680;SDS011;1350;42.134;24.708;2023-12-20T09:01:43;23.25;;;17.60;;
2680;SDS011;1350;42.134;24.708;2023-12-20T09:04:11;22.80;;;17.30;;
2680;SDS011;1350;42.134;24.708;2023-12-20T09:06:38;23.70;;;16.65;;
2680;SDS011;1350;42.134;24.708;2023-12-20T09:09:05;23.15;;;16.85;;
2680;SDS011;1350;42.134;24.708;2023-12-20T09:11:35;18.42;;;15.23;;
2680;SDS011;1350;42.134;24.708;2023-12-20T09:14:05;22.95;;;17.88;;
2680;SDS011;1350;42.134;24.708;2023-12-20T09:16:32;21.10;;;16.38;;
2680;SDS011;1350;42.134;24.708;2023-12-20T09:18:59;21.60;;;16.13;;
2680;SDS011;1350;42.134;24.708;2023-12-20T09:21:26;19.40;;;15.63;;
2680;SDS011;1350;42.134;24.708;2023-12-20T09:23:53;33.17;;;16.25;;
2680;SDS011;1350;42.134;24.708;2023-12-20T09:26:20;29.95;;;16.55;;
2680;SDS011;1350;42.134;24.708;2023-12-20T09:28:47;21.30;;;16.25;;
2680;SDS011;1350;42.134;24.708;2023-12-20T09:31:17;20.48;;;14.75;;
2680;SDS011;1350;42.134;24.708;2023-12-20T09:33:44;23.65;;;16.90;;
2680;SDS011;1350;42.134;24.708;2023-12-20T09:36:10;24.93;;;17.47;;
2680;SDS011;1350;42.134;24.708;2023-12-20T09:38:37;22.67;;;16.27;;
2680;SDS011;1350;42.134;24.708;2023-12-20T09:41:05;22.90;;;15.53;;
2680;SDS011;1350;42.134;24.708;2023-12-20T09:43:32;24.88;;;16.88;;
2680;SDS011;1350;42.134;24.708;2023-12-20T09:46:05;21.23;;;16.95;;
2680;SDS011;1350;42.134;24.708;2023-12-20T09:48:34;21.20;;;17.33;;
2680;SDS011;1350;42.134;24.708;2023-12-20T09:51:03;18.47;;;15.20;;
2680;SDS011;1350;42.134;24.708;2023-12-20T09:53:30;21.30;;;16.70;;
2680;SDS011;1350;42.134;24.708;2023-12-20T09:56:00;21.73;;;18.67;;
2680;SDS011;1350;42.134;24.708;2023-12-20T09:58:28;24.23;;;17.77;;
2680;SDS011;1350;42.134;24.708;2023-12-20T10:00:55;25.40;;;18.70;;
2680;SDS011;1350;42.134;24.708;2023-12-20T10:03:25;23.00;;;18.30;;
2680;SDS011;1350;42.134;24.708;2023-12-20T10:05:54;22.17;;;17.40;;
2680;SDS011;1350;42.134;24.708;2023-12-20T10:08:24;23.93;;;18.87;;
2680;SDS011;1350;42.134;24.708;2023-12-20T10:10:52;20.67;;;17.77;;
2680;SDS011;1350;42.134;24.708;2023-12-20T10:13:19;21.97;;;17.40;;
2680;SDS011;1350;42.134;24.708;2023-12-20T10:15:46;22.53;;;18.03;;
2680;SDS011;1350;42.134;24.708;2023-12-20T10:18:13;26.60;;;19.23;;
2680;SDS011;1350;42.134;24.708;2023-12-20T10:20:40;24.50;;;20.97;;
2680;SDS011;1350;42.134;24.708;2023-12-20T10:23:09;27.70;;;23.70;;
2680;SDS011;1350;42.134;24.708;2023-12-20T10:25:37;26.50;;;20.90;;
2680;SDS011;1350;42.134;24.708;2023-12-20T10:28:11;26.13;;;21.90;;
2680;SDS011;1350;42.134;24.708;2023-12-20T10:30:39;30.23;;;21.27;;
2680;SDS011;1350;42.134;24.708;2023-12-20T10:33:07;22.53;;;18.30;;
2680;SDS011;1350;42.134;24.708;2023-12-20T10:35:34;26.87;;;20.50;;
2680;SDS011;1350;42.134;24.708;2023-12-20T10:38:03;27.53;;;19.20;;
2680;SDS011;1350;42.134;24.708;2023-12-20T10:40:32;26.30;;;18.40;;
2680;SDS011;1350;42.134;24.708;2023-12-20T10:43:01;23.00;;;17.37;;
2680;SDS011;1350;42.134;24.708;2023-12-20T10:45:29;20.17;;;16.60;;
2680;SDS011;1350;42.134;24.708;2023-12-20T10:47:57;22.13;;;17.67;;
2680;SDS011;1350;42.134;24.708;2023-12-20T10:50:26;23.30;;;17.87;;
2680;SDS011;1350;42.134;24.708;2023-12-20T10:52:54;23.17;;;20.27;;
2680;SDS011;1350;42.134;24.708;2023-12-20T10:55:21;32.87;;;19.70;;
2680;SDS011;1350;42.134;24.708;2023-12-20T10:57:51;24.23;;;19.27;;
2680;SDS011;1350;42.134;24.708;2023-12-20T11:00:18;25.43;;;18.87;;
2680;SDS011;1350;42.134;24.708;2023-12-20T11:02:48;22.37;;;17.60;;
2680;SDS011;1350;42.134;24.708;2023-12-20T11:05:19;36.93;;;18.77;;
2680;SDS011;1350;42.134;24.708;2023-12-20T11:07:55;22.20;;;17.97;;
2680;SDS011;1350;42.134;24.708;2023-12-20T11:10:29;23.03;;;17.80;;
2680;SDS011;1350;42.134;24.708;2023-12-20T11:13:05;25.00;;;20.57;;
2680;SDS011;1350;42.134;24.708;2023-12-20T11:15:36;25.60;;;18.50;;
2680;SDS011;1350;42.134;24.708;2023-12-20T11:18:07;24.80;;;21.20;;
2680;SDS011;1350;42.134;24.708;2023-12-20T11:20:35;30.57;;;20.13;;
2680;SDS011;1350;42.134;24.708;2023-12-20T11:23:03;27.13;;;19.83;;
2680;SDS011;1350;42.134;24.708;2023-12-20T11:25:35;27.50;;;19.53;;
2680;SDS011;1350;42.134;24.708;2023-12-20T11:28:15;27.30;;;20.27;;
2680;SDS011;1350;42.134;24.708;2023-12-20T11:30:46;22.10;;;18.77;;
2680;SDS011;1350;42.134;24.708;2023-12-20T11:33:14;23.00;;;18.93;;
2680;SDS011;1350;42.134;24.708;2023-12-20T11:35:41;29.10;;;19.00;;
2680;SDS011;1350;42.134;24.708;2023-12-20T11:38:08;20.70;;;17.90;;
2680;SDS011;1350;42.134;24.708;2023-12-20T11:40:36;26.53;;;16.93;;
2680;SDS011;1350;42.134;24.708;2023-12-20T11:43:03;27.20;;;19.13;;
2680;SDS011;1350;42.134;24.708;2023-12-20T11:45:33;29.03;;;19.37;;
2680;SDS011;1350;42.134;24.708;2023-12-20T11:48:01;28.23;;;19.70;;
2680;SDS011;1350;42.134;24.708;2023-12-20T11:50:28;33.50;;;20.10;;
2680;SDS011;1350;42.134;24.708;2023-12-20T11:52:56;28.53;;;20.30;;
2680;SDS011;1350;42.134;24.708;2023-12-20T11:55:23;26.83;;;20.00;;
2680;SDS011;1350;42.134;24.708;2023-12-20T11:57:51;24.40;;;20.23;;
2680;SDS011;1350;42.134;24.708;2023-12-20T12:00:19;25.40;;;18.83;;
2680;SDS011;1350;42.134;24.708;2023-12-20T12:02:58;26.03;;;17.73;;
2680;SDS011;1350;42.134;24.708;2023-12-20T12:05:26;23.20;;;18.20;;
2680;SDS011;1350;42.134;24.708;2023-12-20T12:07:53;25.17;;;18.83;;
2680;SDS011;1350;42.134;24.708;2023-12-20T12:10:21;23.77;;;18.93;;
2680;SDS011;1350;42.134;24.708;2023-12-20T12:12:48;24.80;;;18.77;;
2680;SDS011;1350;42.134;24.708;2023-12-20T12:15:15;22.90;;;17.90;;
2680;SDS011;1350;42.134;24.708;2023-12-20T12:17:42;26.87;;;19.30;;
2680;SDS011;1350;42.134;24.708;2023-12-20T12:20:11;22.57;;;16.80;;
2680;SDS011;1350;42.134;24.708;2023-12-20T12:22:39;53.77;;;25.80;;
2680;SDS011;1350;42.134;24.708;2023-12-20T12:25:10;46.40;;;21.38;;
2680;SDS011;1350;42.134;24.708;2023-12-20T12:27:39;27.48;;;18.90;;
2680;SDS011;1350;42.134;24.708;2023-12-20T12:30:07;34.53;;;21.03;;
2680;SDS011;1350;42.134;24.708;2023-12-20T12:32:38;26.42;;;19.63;;
2680;SDS011;1350;42.134;24.708;2023-12-20T12:35:05;25.90;;;18.37;;
2680;SDS011;1350;42.134;24.708;2023-12-20T12:37:36;25.13;;;17.38;;
2680;SDS011;1350;42.134;24.708;2023-12-20T12:40:05;24.08;;;17.75;;
2680;SDS011;1350;42.134;24.708;2023-12-20T12:42:33;28.75;;;18.85;;
2680;SDS011;1350;42.134;24.708;2023-12-20T12:45:00;38.75;;;18.85;;
2680;SDS011;1350;42.134;24.708;2023-12-20T12:47:27;23.10;;;19.02;;
2680;SDS011;1350;42.134;24.708;2023-12-20T12:49:54;24.70;;;18.15;;
2680;SDS011;1350;42.134;24.708;2023-12-20T12:52:21;27.27;;;19.73;;
2680;SDS011;1350;42.134;24.708;2023-12-20T12:54:49;29.77;;;21.63;;
2680;SDS011;1350;42.134;24.708;2023-12-20T12:57:16;41.97;;;21.55;;
2680;SDS011;1350;42.134;24.708;2023-12-20T12:59:44;49.55;;;22.25;;
2680;SDS011;1350;42.134;24.708;2023-12-20T13:02:11;28.55;;;20.25;;
2680;SDS011;1350;42.134;24.708;2023-12-20T13:04:39;31.27;;;21.02;;
2680;SDS011;1350;42.134;24.708;2023-12-20T13:07:06;30.55;;;19.65;;
2680;SDS011;1350;42.134;24.708;2023-12-20T13:09:35;36.50;;;24.02;;
2680;SDS011;1350;42.134;24.708;2023-12-20T13:12:05;32.60;;;22.45;;
2680;SDS011;1350;42.134;24.708;2023-12-20T13:14:33;31.20;;;20.88;;
2680;SDS011;1350;42.134;24.708;2023-12-20T13:17:02;30.52;;;19.23;;
2680;SDS011;1350;42.134;24.708;2023-12-20T13:19:30;25.08;;;20.45;;
2680;SDS011;1350;42.134;24.708;2023-12-20T13:21:57;34.53;;;20.27;;
2680;SDS011;1350;42.134;24.708;2023-12-20T13:24:24;26.90;;;20.67;;
2680;SDS011;1350;42.134;24.708;2023-12-20T13:26:51;30.00;;;21.42;;
2680;SDS011;1350;42.134;24.708;2023-12-20T13:29:19;39.72;;;23.35;;
2680;SDS011;1350;42.134;24.708;2023-12-20T13:31:46;50.95;;;37.05;;
2680;SDS011;1350;42.134;24.708;2023-12-20T13:34:14;42.50;;;28.13;;
2680;SDS011;1350;42.134;24.708;2023-12-20T13:36:42;27.40;;;21.52;;
2680;SDS011;1350;42.134;24.708;2023-12-20T13:39:10;64.63;;;39.35;;
2680;SDS011;1350;42.134;24.708;2023-12-20T13:41:38;45.92;;;35.45;;
2680;SDS011;1350;42.134;24.708;2023-12-20T13:44:05;34.40;;;25.00;;
2680;SDS011;1350;42.134;24.708;2023-12-20T13:46:33;45.20;;;30.80;;
2680;SDS011;1350;42.134;24.708;2023-12-20T13:49:02;43.03;;;25.10;;
2680;SDS011;1350;42.134;24.708;2023-12-20T13:51:30;61.45;;;28.20;;
2680;SDS011;1350;42.134;24.708;2023-12-20T13:53:57;41.20;;;22.75;;
2680;SDS011;1350;42.134;24.708;2023-12-20T13:56:25;48.03;;;23.90;;
2680;SDS011;1350;42.134;24.708;2023-12-20T13:58:52;34.55;;;23.23;;
2680;SDS011;1350;42.134;24.708;2023-12-20T14:01:19;34.88;;;21.50;;
2680;SDS011;1350;42.134;24.708;2023-12-20T14:03:47;43.78;;;25.83;;
2680;SDS011;1350;42.134;24.708;2023-12-20T14:06:15;42.67;;;23.48;;
2680;SDS011;1350;42.134;24.708;2023-12-20T14:08:43;36.58;;;24.08;;
2680;SDS011;1350;42.134;24.708;2023-12-20T14:11:10;34.90;;;26.23;;
2680;SDS011;1350;42.134;24.708;2023-12-20T14:13:37;38.80;;;28.55;;
2680;SDS011;1350;42.134;24.708;2023-12-20T14:16:04;45.92;;;30.42;;
2680;SDS011;1350;42.134;24.708;2023-12-20T14:18:31;37.33;;;28.05;;
2680;SDS011;1350;42.134;24.708;2023-12-20T14:21:00;37.25;;;28.58;;
2680;SDS011;1350;42.134;24.708;2023-12-20T14:23:27;41.70;;;27.92;;
2680;SDS011;1350;42.134;24.708;2023-12-20T14:25:54;45.75;;;31.02;;
2680;SDS011;1350;42.134;24.708;2023-12-20T14:28:23;43.58;;;31.33;;
2680;SDS011;1350;42.134;24.708;2023-12-20T14:30:50;40.08;;;31.27;;
2680;SDS011;1350;42.134;24.708;2023-12-20T14:33:17;56.90;;;35.95;;
2680;SDS011;1350;42.134;24.708;2023-12-20T14:35:46;47.30;;;33.90;;
2680;SDS011;1350;42.134;24.708;2023-12-20T14:38:16;48.42;;;31.50;;